Terminal Aerodrome Forecast
Issued by NWS Cleveland, OH

Home | Current Version | Previous Version | Graphics & Text | Print | Product List | Glossary On
Versions: 1 2 3 4 5 6 7 8 9 10 11 12 13 14 15 16 17 18 19 20
000
FTUS41 KCLE 271500 AAA
TAFYNG
TAF AMD
KYNG 271505Z 2715/2812 33012KT 2SM -SN OVC012
      TEMPO 2716/2719 3SM -SN
     FM271900 33012KT 6SM -SN OVC020
     FM280900 34009KT P6SM OVC025=

USA.gov is the U.S. government's official web portal to all federal, state and local government web resources and services.